Time;durP1;ratioP1;P1;durP2;ratioP2;P2;SDS_P1;SDS_P2;PMS_P1;PMS_P2;Temp;Humidity;BMP_temperature;BMP_pressure;BME280_temperature;BME280_humidity;BME280_pressure;Samples;Min_cycle;Max_cycle;Signal;HPM_P1;HPM_P2
2022/05/15 00:00:41;;;;;;;4.82;0.93;;;11.10;99.30;;;;;;5072518;28;20485;-68
2022/05/15 00:03:17;;;;;;;3.50;0.93;;;11.10;99.30;;;;;;5089981;28;20028;-68
2022/05/15 00:05:44;;;;;;;6.13;1.48;;;11.10;99.70;;;;;;5092041;28;20292;-68
2022/05/15 00:08:10;;;;;;;2.28;1.00;;;11.00;99.70;;;;;;5059635;28;20485;-68
2022/05/15 00:10:38;;;;;;;5.05;0.85;;;11.00;99.60;;;;;;5074001;28;20040;-68
2022/05/15 00:13:05;;;;;;;2.60;0.90;;;11.00;99.90;;;;;;5072008;28;20036;-68
2022/05/15 00:15:32;;;;;;;5.65;1.20;;;11.00;99.90;;;;;;5053448;28;20049;-69
2022/05/15 00:17:57;;;;;;;2.97;1.08;;;11.00;99.60;;;;;;5071874;28;20489;-68
2022/05/15 00:20:23;;;;;;;4.38;0.77;;;10.90;99.40;;;;;;5071502;28;20043;-68
2022/05/15 00:22:49;;;;;;;3.33;0.75;;;10.90;99.50;;;;;;5067564;28;20067;-68
2022/05/15 00:25:14;;;;;;;3.03;1.13;;;10.90;99.40;;;;;;5071627;28;20040;-69
2022/05/15 00:27:40;;;;;;;3.95;1.00;;;10.80;99.40;;;;;;5072476;28;20036;-68
2022/05/15 00:30:06;;;;;;;4.85;0.90;;;10.80;99.60;;;;;;5072216;28;20068;-68
2022/05/15 00:32:32;;;;;;;3.88;1.00;;;10.80;99.60;;;;;;5072336;28;20044;-68
2022/05/15 00:34:58;;;;;;;3.35;1.05;;;10.80;99.90;;;;;;5064277;28;20509;-68
2022/05/15 00:37:23;;;;;;;2.50;1.02;;;10.70;99.70;;;;;;5052046;28;20063;-68
2022/05/15 00:39:49;;;;;;;0.60;0.43;;;10.70;99.60;;;;;;5071526;28;20036;-69
2022/05/15 00:42:14;;;;;;;1.15;0.73;;;10.60;99.60;;;;;;5071530;28;20065;-68
2022/05/15 00:44:40;;;;;;;5.20;0.93;;;10.60;99.80;;;;;;5072204;28;20046;-69
2022/05/15 00:47:06;;;;;;;7.82;0.90;;;10.60;99.90;;;;;;5071913;28;20063;-68
2022/05/15 00:49:34;;;;;;;3.70;1.05;;;10.60;99.90;;;;;;5066894;28;20044;-68
2022/05/15 00:52:04;;;;;;;1.73;0.80;;;10.50;99.90;;;;;;5071668;28;20485;-68
2022/05/15 00:54:35;;;;;;;1.80;1.10;;;10.50;99.90;;;;;;5072091;28;20079;-69
2022/05/15 00:57:08;;;;;;;1.17;0.50;;;10.50;99.90;;;;;;5060604;28;20086;-68
2022/05/15 00:59:44;;;;;;;2.08;0.95;;;10.50;99.90;;;;;;5053326;28;20075;-68
2022/05/15 01:02:11;;;;;;;3.00;0.88;;;10.50;99.90;;;;;;5076474;28;20032;-68
2022/05/15 01:04:36;;;;;;;1.35;0.82;;;10.50;99.90;;;;;;5058212;28;20044;-68
2022/05/15 01:07:03;;;;;;;2.45;1.25;;;10.50;99.90;;;;;;5061989;28;20043;-68
2022/05/15 01:09:29;;;;;;;4.30;0.82;;;10.40;99.90;;;;;;5071616;28;20044;-68
2022/05/15 01:11:56;;;;;;;1.02;0.43;;;10.40;99.90;;;;;;5059139;28;20509;-68
2022/05/15 01:14:21;;;;;;;1.85;0.85;;;10.40;99.90;;;;;;5064325;28;20064;-68
2022/05/15 01:16:47;;;;;;;5.65;1.10;;;10.40;99.90;;;;;;5087969;28;20047;-68
2022/05/15 01:19:14;;;;;;;3.13;1.08;;;10.30;99.90;;;;;;5071797;28;20079;-68
2022/05/15 01:21:56;;;;;;;4.47;1.58;;;10.30;99.90;;;;;;5054557;28;20047;-68
2022/05/15 01:24:22;;;;;;;2.97;1.35;;;10.30;99.90;;;;;;5069813;28;20097;-68
2022/05/15 01:26:48;;;;;;;1.92;0.85;;;10.30;99.90;;;;;;5055465;28;20071;-68
2022/05/15 01:29:13;;;;;;;5.15;1.65;;;10.20;99.90;;;;;;5071102;28;20055;-68
2022/05/15 01:31:40;;;;;;;3.60;0.98;;;10.30;99.90;;;;;;5069838;28;20120;-68
2022/05/15 01:34:10;;;;;;;2.97;1.08;;;10.30;99.90;;;;;;5040527;28;20040;-68
2022/05/15 01:36:37;;;;;;;4.60;0.93;;;10.20;99.90;;;;;;5051714;28;20497;-68
2022/05/15 01:39:04;;;;;;;1.33;0.73;;;10.20;99.90;;;;;;5050973;28;20481;-68
2022/05/15 01:41:30;;;;;;;3.08;1.60;;;10.10;99.90;;;;;;5052160;28;20041;-68
2022/05/15 01:43:56;;;;;;;1.30;0.73;;;10.10;99.90;;;;;;5069038;28;20523;-68
2022/05/15 01:46:24;;;;;;;8.52;0.93;;;10.10;99.90;;;;;;5069882;28;20035;-68
2022/05/15 01:48:51;;;;;;;2.40;1.23;;;10.10;99.90;;;;;;5071593;28;20075;-68
2022/05/15 01:51:17;;;;;;;2.92;1.10;;;10.00;99.90;;;;;;5070028;28;20046;-68
2022/05/15 01:53:43;;;;;;;3.05;1.38;;;10.00;99.90;;;;;;5070023;28;20050;-68
2022/05/15 01:56:10;;;;;;;9.25;0.90;;;10.00;99.90;;;;;;5052778;28;20047;-68
2022/05/15 01:58:35;;;;;;;1.90;0.85;;;10.00;99.90;;;;;;5088685;28;20032;-68
2022/05/15 02:01:02;;;;;;;1.73;0.60;;;10.00;99.90;;;;;;5070735;28;20385;-68
2022/05/15 02:03:27;;;;;;;0.77;0.32;;;10.00;99.90;;;;;;5070450;28;20067;-68
2022/05/15 02:05:53;;;;;;;0.75;0.43;;;9.90;99.90;;;;;;5070919;28;20060;-68
2022/05/15 02:08:19;;;;;;;1.38;0.52;;;9.90;99.90;;;;;;5052421;28;20040;-68
2022/05/15 02:10:45;;;;;;;2.55;1.20;;;9.90;99.90;;;;;;5054437;28;20051;-68
2022/05/15 02:13:11;;;;;;;4.45;1.15;;;9.90;99.90;;;;;;5067959;28;20063;-68
2022/05/15 02:15:37;;;;;;;3.55;1.15;;;9.80;99.90;;;;;;5078698;28;20079;-68
2022/05/15 02:18:04;;;;;;;3.40;1.10;;;9.80;99.90;;;;;;5071016;28;20039;-68
2022/05/15 02:20:30;;;;;;;2.72;1.13;;;9.80;99.90;;;;;;5087881;28;20569;-68
2022/05/15 02:22:56;;;;;;;2.90;0.95;;;9.80;99.90;;;;;;5066718;28;20024;-68
2022/05/15 02:25:22;;;;;;;3.55;0.95;;;9.70;99.90;;;;;;5069592;28;20475;-68
2022/05/15 02:27:48;;;;;;;0.90;0.52;;;9.70;99.90;;;;;;5070136;28;20085;-68
2022/05/15 02:30:15;;;;;;;4.20;1.33;;;9.70;99.90;;;;;;5069395;28;20109;-68
2022/05/15 02:32:41;;;;;;;4.47;1.38;;;9.70;99.90;;;;;;5065748;28;20043;-68
2022/05/15 02:35:08;;;;;;;3.90;1.08;;;9.70;99.90;;;;;;5070633;28;20028;-68
2022/05/15 02:37:33;;;;;;;4.78;1.20;;;9.60;99.90;;;;;;5065473;28;20089;-68
2022/05/15 02:39:59;;;;;;;5.85;1.67;;;9.70;99.90;;;;;;5054155;28;20044;-68
2022/05/15 02:42:25;;;;;;;1.90;0.70;;;9.60;99.90;;;;;;5067999;28;20116;-68
2022/05/15 02:44:52;;;;;;;1.15;0.60;;;9.60;99.90;;;;;;5073983;28;20044;-68
2022/05/15 02:47:17;;;;;;;2.75;0.73;;;9.60;99.90;;;;;;5051166;28;20033;-68
2022/05/15 02:52:27;;;;;;;3.00;0.93;;;9.50;99.90;;;;;;5067482;28;20048;-68
2022/05/15 02:54:52;;;;;;;2.92;0.65;;;9.50;99.90;;;;;;5052408;28;20036;-68
2022/05/15 02:57:18;;;;;;;0.82;0.50;;;9.50;99.90;;;;;;5068778;28;20063;-68
2022/05/15 02:59:44;;;;;;;1.80;0.50;;;9.50;99.90;;;;;;5068320;28;20508;-68
2022/05/15 03:02:09;;;;;;;4.72;0.98;;;9.50;99.90;;;;;;5053532;28;20085;-68
2022/05/15 03:04:36;;;;;;;4.35;0.52;;;9.50;99.90;;;;;;5069934;28;20040;-68
2022/05/15 03:07:06;;;;;;;2.20;0.70;;;9.40;99.90;;;;;;5053478;28;20044;-68
2022/05/15 03:09:32;;;;;;;2.33;0.95;;;9.40;99.90;;;;;;5049157;28;20071;-68
2022/05/15 03:11:58;;;;;;;4.00;0.85;;;9.40;99.90;;;;;;5089034;28;20493;-68
2022/05/15 03:14:23;;;;;;;1.55;0.80;;;9.30;99.90;;;;;;5068074;28;20090;-68
2022/05/15 03:16:49;;;;;;;2.08;0.98;;;9.30;99.90;;;;;;5054019;28;20650;-68
2022/05/15 03:19:15;;;;;;;1.38;0.75;;;9.30;99.90;;;;;;5056267;28;20049;-68
2022/05/15 03:21:40;;;;;;;2.33;1.08;;;9.30;99.90;;;;;;5064313;28;20519;-68
2022/05/15 03:24:11;;;;;;;3.67;1.15;;;9.30;99.90;;;;;;5068395;28;20434;-68
2022/05/15 03:26:39;;;;;;;2.92;0.98;;;9.30;99.90;;;;;;5085399;28;20855;-68
2022/05/15 03:29:06;;;;;;;6.32;1.10;;;9.30;99.90;;;;;;5062863;28;20048;-68
2022/05/15 03:31:36;;;;;;;3.97;1.30;;;9.30;99.90;;;;;;5068329;28;20046;-68
2022/05/15 03:34:02;;;;;;;1.55;0.70;;;9.30;99.90;;;;;;5042047;28;20047;-68
2022/05/15 03:36:28;;;;;;;4.28;1.25;;;9.20;99.90;;;;;;5072237;28;20610;-68
2022/05/15 03:38:55;;;;;;;5.82;1.45;;;9.20;99.90;;;;;;5091341;28;20040;-68
2022/05/15 03:41:21;;;;;;;1.85;0.68;;;9.30;99.90;;;;;;5048180;28;20041;-68
2022/05/15 03:43:46;;;;;;;2.80;0.80;;;9.20;99.90;;;;;;5083378;28;20366;-68
2022/05/15 03:46:13;;;;;;;4.60;0.80;;;9.30;99.90;;;;;;5092305;28;20409;-68
2022/05/15 03:48:38;;;;;;;4.40;1.02;;;9.20;99.90;;;;;;5055266;28;20051;-68
2022/05/15 03:51:04;;;;;;;2.13;0.50;;;9.20;99.90;;;;;;5091122;28;20040;-68
2022/05/15 03:53:31;;;;;;;5.85;0.70;;;9.20;99.90;;;;;;5071246;28;20040;-68
2022/05/15 03:55:58;;;;;;;0.98;0.60;;;9.20;99.90;;;;;;5073307;28;20078;-68
2022/05/15 03:58:25;;;;;;;1.42;0.65;;;9.20;99.90;;;;;;5072062;28;20119;-68
2022/05/15 04:00:52;;;;;;;2.47;1.00;;;9.20;99.90;;;;;;5056397;28;20039;-68
2022/05/15 04:03:17;;;;;;;5.40;1.35;;;9.10;99.90;;;;;;5072314;28;20497;-68
2022/05/15 04:05:43;;;;;;;2.65;0.80;;;9.20;99.90;;;;;;5071202;28;20068;-68
2022/05/15 04:08:08;;;;;;;2.75;0.90;;;9.20;99.90;;;;;;5070332;28;20071;-68
2022/05/15 04:10:35;;;;;;;3.38;0.95;;;9.20;99.90;;;;;;5073923;28;20043;-69
2022/05/15 04:13:00;;;;;;;1.83;0.90;;;9.20;99.90;;;;;;5064786;28;20089;-68
2022/05/15 04:15:26;;;;;;;5.35;1.33;;;9.10;99.90;;;;;;5090040;28;20051;-68
2022/05/15 04:17:51;;;;;;;1.90;0.70;;;9.20;99.90;;;;;;5072922;28;20040;-68
2022/05/15 04:20:26;;;;;;;2.75;1.10;;;9.20;99.90;;;;;;5071421;28;20035;-68
2022/05/15 04:22:53;;;;;;;4.68;0.82;;;9.10;99.90;;;;;;5071189;28;20123;-68
2022/05/15 04:25:19;;;;;;;3.45;1.23;;;9.10;99.90;;;;;;5056590;28;20036;-68
2022/05/15 04:27:46;;;;;;;2.97;0.93;;;9.10;99.90;;;;;;5055920;28;20040;-68
2022/05/15 04:30:14;;;;;;;4.93;1.25;;;9.10;99.90;;;;;;5054519;28;20443;-68
2022/05/15 04:32:41;;;;;;;6.63;1.30;;;9.20;99.90;;;;;;5067326;28;20047;-68
2022/05/15 04:35:07;;;;;;;2.00;0.85;;;9.30;99.90;;;;;;5070422;28;20092;-68
2022/05/15 04:37:33;;;;;;;4.80;1.05;;;9.30;99.90;;;;;;5055163;28;20043;-68
2022/05/15 04:39:59;;;;;;;2.92;1.00;;;9.30;99.90;;;;;;5090675;28;20028;-68
2022/05/15 04:42:24;;;;;;;6.43;1.05;;;9.40;99.90;;;;;;5072359;28;20455;-68
2022/05/15 04:44:50;;;;;;;2.50;1.13;;;9.40;99.90;;;;;;5089968;28;20032;-68
2022/05/15 04:47:16;;;;;;;4.32;1.27;;;9.40;99.90;;;;;;5055349;28;20032;-68
2022/05/15 04:49:43;;;;;;;4.93;1.00;;;9.40;99.90;;;;;;5088391;28;20044;-68
2022/05/15 04:52:10;;;;;;;2.58;1.25;;;9.50;99.90;;;;;;5071857;28;20086;-68
2022/05/15 04:54:36;;;;;;;4.13;1.10;;;9.50;99.90;;;;;;5054876;28;20044;-68
2022/05/15 04:57:02;;;;;;;5.22;1.67;;;9.60;99.90;;;;;;5058104;28;20632;-68
2022/05/15 04:59:27;;;;;;;5.00;1.27;;;9.60;99.90;;;;;;5071711;28;20044;-68
2022/05/15 05:01:53;;;;;;;6.25;1.75;;;9.70;99.90;;;;;;5055360;28;20052;-68
2022/05/15 05:04:19;;;;;;;8.65;2.08;;;9.80;99.90;;;;;;5070262;28;20084;-69
2022/05/15 05:06:44;;;;;;;3.72;1.48;;;9.80;99.90;;;;;;5071227;28;20043;-68
2022/05/15 05:09:11;;;;;;;6.95;1.50;;;9.90;99.90;;;;;;5070649;28;20119;-68
2022/05/15 05:11:37;;;;;;;5.25;1.70;;;9.90;99.90;;;;;;5088579;28;20089;-68
2022/05/15 05:14:03;;;;;;;3.95;1.38;;;10.00;99.90;;;;;;5070848;28;20048;-68
2022/05/15 05:16:30;;;;;;;3.40;1.40;;;10.10;99.90;;;;;;5072223;28;20112;-68
2022/05/15 05:18:56;;;;;;;2.92;1.30;;;10.20;99.90;;;;;;5071288;28;20464;-68
2022/05/15 05:21:22;;;;;;;7.05;1.85;;;10.20;99.90;;;;;;5071518;28;20039;-68
2022/05/15 05:23:47;;;;;;;5.03;1.02;;;10.30;99.90;;;;;;5088674;28;20035;-68
2022/05/15 05:26:13;;;;;;;7.20;1.80;;;10.30;99.90;;;;;;5071585;28;20051;-68
2022/05/15 05:28:39;;;;;;;3.30;1.48;;;10.40;99.90;;;;;;5053332;28;20508;-68
2022/05/15 05:31:04;;;;;;;5.97;1.30;;;10.50;99.90;;;;;;5071316;28;20071;-68
2022/05/15 05:33:30;;;;;;;5.80;1.73;;;10.50;99.90;;;;;;5089341;28;20040;-68
2022/05/15 05:35:56;;;;;;;7.20;1.33;;;10.60;99.90;;;;;;5071182;28;20059;-68
2022/05/15 05:38:21;;;;;;;4.65;1.52;;;10.60;99.90;;;;;;5088622;28;20080;-68
2022/05/15 05:40:47;;;;;;;4.75;1.35;;;10.70;99.90;;;;;;5071239;28;20073;-68
2022/05/15 05:43:13;;;;;;;9.10;1.52;;;10.80;99.90;;;;;;5070197;28;20024;-68
2022/05/15 05:45:38;;;;;;;2.60;1.08;;;10.90;99.90;;;;;;5071866;28;20131;-68
2022/05/15 05:48:05;;;;;;;5.00;1.88;;;11.00;99.90;;;;;;5070488;28;20032;-68
2022/05/15 05:50:31;;;;;;;2.15;1.23;;;11.10;99.90;;;;;;5071871;28;20500;-68
2022/05/15 05:52:58;;;;;;;6.20;1.50;;;11.20;99.90;;;;;;5088974;28;20036;-68
2022/05/15 05:55:25;;;;;;;3.50;1.25;;;11.30;99.90;;;;;;5054505;28;20035;-68
2022/05/15 05:57:51;;;;;;;4.93;1.48;;;11.50;99.90;;;;;;5069987;28;20492;-68
2022/05/15 06:00:21;;;;;;;6.65;1.63;;;11.60;99.90;;;;;;5070087;28;20044;-68
2022/05/15 06:02:47;;;;;;;3.72;1.48;;;11.60;99.90;;;;;;5071114;28;20507;-68
2022/05/15 06:05:13;;;;;;;4.95;1.48;;;11.70;99.90;;;;;;5069841;28;20040;-68
2022/05/15 06:07:38;;;;;;;3.03;1.08;;;11.70;99.90;;;;;;5070640;28;20044;-68
2022/05/15 06:10:10;;;;;;;3.45;0.73;;;11.80;99.90;;;;;;5069169;28;20504;-68
2022/05/15 06:12:35;;;;;;;7.07;1.50;;;11.90;99.90;;;;;;5054229;28;20043;-68
2022/05/15 06:15:01;;;;;;;5.53;1.27;;;11.90;99.90;;;;;;5082282;28;20048;-68
2022/05/15 06:17:29;;;;;;;2.47;1.10;;;11.90;99.90;;;;;;5083139;28;20048;-68
2022/05/15 06:19:56;;;;;;;6.00;1.17;;;12.00;99.90;;;;;;5069571;28;20421;-68
2022/05/15 06:22:21;;;;;;;6.93;1.13;;;12.10;99.90;;;;;;5080047;28;20126;-68
2022/05/15 06:24:47;;;;;;;4.00;1.05;;;12.70;99.90;;;;;;5053111;28;20115;-68
2022/05/15 06:27:13;;;;;;;5.35;1.35;;;13.70;99.90;;;;;;5072522;28;20040;-68
2022/05/15 06:29:40;;;;;;;4.32;1.30;;;14.80;99.90;;;;;;5051394;28;20040;-68
2022/05/15 06:32:07;;;;;;;6.15;1.25;;;15.80;97.40;;;;;;5054859;28;20040;-68
2022/05/15 06:34:34;;;;;;;5.68;1.00;;;16.80;94.70;;;;;;5059661;28;20131;-66
2022/05/15 06:37:00;;;;;;;2.35;1.13;;;17.60;92.70;;;;;;5061782;28;20127;-68
2022/05/15 06:39:25;;;;;;;3.42;1.20;;;18.30;91.50;;;;;;5063693;28;20500;-68
2022/05/15 06:41:56;;;;;;;3.25;1.05;;;18.90;90.10;;;;;;5070565;28;20058;-68
2022/05/15 06:44:22;;;;;;;2.55;0.50;;;19.00;88.90;;;;;;5065126;28;20044;-68
2022/05/15 06:46:47;;;;;;;6.25;1.10;;;18.50;91.10;;;;;;5056889;28;20038;-68
2022/05/15 06:49:14;;;;;;;3.50;1.05;;;17.90;93.30;;;;;;5057765;28;20040;-68
2022/05/15 06:51:40;;;;;;;5.32;1.33;;;17.30;94.70;;;;;;5048994;28;20113;-68
2022/05/15 06:54:06;;;;;;;2.35;1.10;;;16.80;96.50;;;;;;5055418;28;21467;-68
2022/05/15 06:59:16;;;;;;;4.10;1.20;;;16.10;98.50;;;;;;5047788;28;20045;-68
2022/05/15 07:01:41;;;;;;;11.15;1.40;;;15.80;99.00;;;;;;5064544;28;20032;-68
2022/05/15 07:04:07;;;;;;;6.97;1.13;;;15.60;99.40;;;;;;5062353;28;20070;-68
2022/05/15 07:06:32;;;;;;;5.78;1.20;;;15.40;99.70;;;;;;5053586;28;20047;-68
2022/05/15 07:08:58;;;;;;;3.83;0.98;;;15.20;99.80;;;;;;5050707;28;20040;-67
2022/05/15 07:11:24;;;;;;;2.85;0.95;;;15.10;99.90;;;;;;5045366;28;20082;-67
2022/05/15 07:13:50;;;;;;;3.13;1.45;;;15.00;99.60;;;;;;5054538;28;20078;-68
2022/05/15 07:16:15;;;;;;;5.38;1.15;;;14.90;99.80;;;;;;5054284;28;20072;-67
2022/05/15 07:18:41;;;;;;;4.43;1.25;;;14.80;99.60;;;;;;5059849;28;20490;-68
2022/05/15 07:21:07;;;;;;;6.57;1.15;;;14.80;99.70;;;;;;5082572;28;20040;-68
2022/05/15 07:23:33;;;;;;;4.43;0.93;;;14.70;99.60;;;;;;5068464;28;20485;-68
2022/05/15 07:25:59;;;;;;;5.30;1.30;;;14.70;99.60;;;;;;5053728;28;20071;-68
2022/05/15 07:28:25;;;;;;;4.28;1.00;;;14.70;99.60;;;;;;5058713;28;20052;-67
2022/05/15 07:30:51;;;;;;;7.40;1.27;;;14.70;99.50;;;;;;5074721;28;20044;-70
2022/05/15 07:33:21;;;;;;;7.45;1.00;;;14.70;99.20;;;;;;5057199;28;20037;-68
2022/05/15 07:35:47;;;;;;;4.50;1.25;;;14.70;99.00;;;;;;5072247;28;20056;-68
2022/05/15 07:38:13;;;;;;;2.88;1.20;;;14.70;99.20;;;;;;5079394;28;20546;-68
2022/05/15 07:40:38;;;;;;;2.13;1.15;;;14.70;98.80;;;;;;5066269;28;20048;-68
2022/05/15 07:43:06;;;;;;;8.60;1.60;;;14.70;98.60;;;;;;5062737;28;20118;-68
2022/05/15 07:45:32;;;;;;;8.82;1.23;;;14.70;98.80;;;;;;5065804;28;20067;-68
2022/05/15 07:47:58;;;;;;;1.67;0.75;;;14.70;98.90;;;;;;5040448;28;20064;-68
2022/05/15 07:50:23;;;;;;;2.60;0.98;;;14.80;98.50;;;;;;5058342;28;20505;-68
2022/05/15 07:52:49;;;;;;;3.25;1.08;;;14.80;98.40;;;;;;5059771;28;20043;-68
2022/05/15 07:55:14;;;;;;;4.82;1.17;;;14.80;98.20;;;;;;5066724;28;20367;-68
2022/05/15 07:57:40;;;;;;;3.03;0.93;;;14.90;97.90;;;;;;5071470;28;20302;-68
2022/05/15 08:00:09;;;;;;;4.68;1.35;;;14.90;97.70;;;;;;5051261;28;20044;-68
2022/05/15 08:02:34;;;;;;;4.55;1.10;;;14.90;97.60;;;;;;5049768;28;20040;-68
2022/05/15 08:08:00;;;;;;;2.30;0.98;;;15.00;97.80;;;;;;5057327;28;20501;-70
2022/05/15 08:10:28;;;;;;;8.07;1.00;;;15.10;97.30;;;;;;5068631;28;20463;-68
2022/05/15 08:12:54;;;;;;;6.22;1.27;;;15.10;97.00;;;;;;5056736;28;20055;-68
2022/05/15 08:15:20;;;;;;;2.70;0.93;;;15.20;96.70;;;;;;5065171;28;20048;-68
2022/05/15 08:17:46;;;;;;;1.45;0.57;;;15.20;96.60;;;;;;5068710;28;20047;-68
2022/05/15 08:25:42;;;;;;;2.90;0.85;;;15.30;95.80;;;;;;5069250;28;20035;-67
2022/05/15 08:28:07;;;;;;;3.00;0.88;;;15.30;95.40;;;;;;5072608;28;20044;-68
2022/05/15 08:30:33;;;;;;;8.35;1.13;;;15.40;95.10;;;;;;5040114;28;20043;-68
2022/05/15 08:32:59;;;;;;;8.63;1.27;;;15.40;95.00;;;;;;5079085;28;20192;-68
2022/05/15 08:35:25;;;;;;;3.13;0.70;;;15.40;95.00;;;;;;5078547;28;20067;-68
2022/05/15 08:37:50;;;;;;;5.18;1.08;;;15.50;94.50;;;;;;5060550;28;20178;-68
2022/05/15 08:40:22;;;;;;;6.38;1.10;;;15.50;94.50;;;;;;5076811;28;20051;-68
2022/05/15 08:42:56;;;;;;;2.38;0.95;;;15.60;94.00;;;;;;5076844;28;20032;-68
2022/05/15 08:45:26;;;;;;;5.72;0.90;;;15.60;94.10;;;;;;5063424;28;20578;-68
2022/05/15 08:48:12;;;;;;;7.43;0.90;;;15.60;93.80;;;;;;5057620;28;20123;-68
2022/05/15 08:50:52;;;;;;;3.30;1.13;;;15.70;93.20;;;;;;5062802;28;20075;-67
2022/05/15 08:53:25;;;;;;;2.92;1.20;;;15.80;93.20;;;;;;5065449;28;20037;-68
2022/05/15 08:55:55;;;;;;;3.47;1.45;;;15.80;93.60;;;;;;5071679;28;20053;-70
2022/05/15 08:58:27;;;;;;;2.88;0.68;;;15.90;93.80;;;;;;5062617;28;20039;-68
2022/05/15 09:00:54;;;;;;;0.85;0.50;;;15.90;93.50;;;;;;5060946;28;20029;-68
2022/05/15 09:03:29;;;;;;;4.47;0.70;;;16.00;93.30;;;;;;5062839;28;20040;-68
2022/05/15 09:06:04;;;;;;;4.35;0.80;;;16.00;93.00;;;;;;5056003;28;20054;-68
2022/05/15 09:08:55;;;;;;;6.78;0.80;;;16.10;92.60;;;;;;5080792;28;20046;-68
2022/05/15 09:11:47;;;;;;;5.22;1.35;;;16.10;92.70;;;;;;5059994;28;20044;-68
2022/05/15 09:14:49;;;;;;;2.88;0.90;;;16.20;92.30;;;;;;5054377;28;20056;-68
2022/05/15 09:17:24;;;;;;;3.10;0.98;;;16.10;92.50;;;;;;5054935;28;20044;-68
2022/05/15 09:19:54;;;;;;;6.57;1.15;;;16.20;91.00;;;;;;5055045;28;20122;-68
2022/05/15 09:22:22;;;;;;;9.13;1.20;;;16.30;91.80;;;;;;5067820;28;20507;-68
2022/05/15 09:24:51;;;;;;;5.68;1.02;;;16.30;92.30;;;;;;5066595;28;20028;-68
2022/05/15 09:27:25;;;;;;;2.25;0.65;;;16.40;92.00;;;;;;5081616;28;20477;-68
2022/05/15 09:29:55;;;;;;;4.15;0.70;;;16.40;91.40;;;;;;5062108;28;20036;-67
2022/05/15 09:32:42;;;;;;;3.35;0.80;;;16.30;91.30;;;;;;5055815;28;20032;-67
2022/05/15 09:35:33;;;;;;;5.13;1.13;;;16.30;90.40;;;;;;5054009;28;20641;-68
2022/05/15 09:43:50;;;;;;;2.78;0.93;;;16.30;91.50;;;;;;5079764;28;20079;-68
2022/05/15 09:46:18;;;;;;;4.25;1.10;;;16.30;91.30;;;;;;5054317;28;20106;-68
2022/05/15 09:48:56;;;;;;;2.35;0.90;;;16.40;91.70;;;;;;5057369;28;20035;-68
2022/05/15 09:51:54;;;;;;;5.35;0.80;;;16.50;91.10;;;;;;5057485;28;20040;-67
2022/05/15 09:54:37;;;;;;;1.55;0.75;;;16.50;90.50;;;;;;5060088;28;20074;-67
2022/05/15 09:57:24;;;;;;;3.95;1.02;;;16.60;87.80;;;;;;5044149;28;20035;-68
2022/05/15 09:59:58;;;;;;;4.10;0.88;;;16.60;88.40;;;;;;5073797;28;20032;-68
2022/05/15 10:02:45;;;;;;;1.55;0.60;;;16.70;89.40;;;;;;5057493;28;20036;-67
2022/05/15 10:05:20;;;;;;;5.57;1.13;;;16.70;88.60;;;;;;5060995;28;20495;-67
2022/05/15 10:08:00;;;;;;;6.13;0.75;;;16.80;90.20;;;;;;5053257;28;20135;-67
2022/05/15 10:10:38;;;;;;;2.53;0.85;;;16.90;89.20;;;;;;5043115;28;20040;-68
2022/05/15 10:13:18;;;;;;;2.53;1.00;;;17.00;89.40;;;;;;5076157;28;20036;-68
2022/05/15 10:15:49;;;;;;;4.70;0.90;;;17.10;89.10;;;;;;5074844;28;20087;-67
2022/05/15 10:18:23;;;;;;;2.67;0.88;;;17.10;86.60;;;;;;5057062;28;20051;-67
2022/05/15 10:20:52;;;;;;;1.77;0.75;;;17.20;87.10;;;;;;5079942;28;20051;-68
2022/05/15 10:23:30;;;;;;;5.20;0.77;;;17.20;88.50;;;;;;5059760;28;20392;-67
2022/05/15 10:26:05;;;;;;;3.70;0.80;;;17.20;85.40;;;;;;5052709;28;20046;-69
2022/05/15 10:28:41;;;;;;;5.38;1.50;;;17.30;85.90;;;;;;5052861;28;20036;-67
2022/05/15 10:31:31;;;;;;;1.58;0.75;;;17.40;82.80;;;;;;5072804;28;20081;-68
2022/05/15 10:34:09;;;;;;;5.68;1.33;;;17.40;82.10;;;;;;5060444;28;20055;-68
2022/05/15 10:37:01;;;;;;;2.25;0.75;;;17.50;83.70;;;;;;5061276;28;20119;-68
2022/05/15 10:39:40;;;;;;;1.95;1.00;;;17.50;82.50;;;;;;5057614;28;20048;-68
2022/05/15 10:42:40;;;;;;;5.85;1.05;;;17.50;84.60;;;;;;5048414;28;20037;-68
2022/05/15 10:45:21;;;;;;;1.90;0.80;;;17.50;83.10;;;;;;5053118;28;20556;-68
2022/05/15 10:48:05;;;;;;;2.83;1.02;;;17.60;80.30;;;;;;5061331;28;20044;-68
2022/05/15 10:50:47;;;;;;;7.18;1.27;;;17.60;83.40;;;;;;5072215;28;20052;-68
2022/05/15 11:00:06;;;;;;;3.90;0.80;;;17.60;77.60;;;;;;5025864;28;20474;-68
2022/05/15 11:02:45;;;;;;;3.22;0.73;;;17.70;78.10;;;;;;5073698;28;20272;-67
2022/05/15 11:05:28;;;;;;;1.83;0.80;;;17.70;79.90;;;;;;5054540;28;20043;-68
2022/05/15 11:08:13;;;;;;;2.40;0.70;;;17.70;75.70;;;;;;5073335;28;20035;-67
2022/05/15 11:10:58;;;;;;;4.35;0.75;;;17.70;79.90;;;;;;5063926;28;20033;-69
2022/05/15 11:13:52;;;;;;;2.70;0.85;;;17.80;76.20;;;;;;5076218;28;20530;-67
2022/05/15 11:16:24;;;;;;;4.63;0.80;;;17.90;72.80;;;;;;5054349;28;20040;-67
2022/05/15 11:19:27;;;;;;;3.47;0.68;;;17.90;78.90;;;;;;5058675;28;20087;-67
2022/05/15 11:21:59;;;;;;;3.83;1.30;;;17.90;76.80;;;;;;5080792;28;22430;-67
2022/05/15 11:25:04;;;;;;;2.58;0.90;;;18.00;78.50;;;;;;5045750;28;20391;-67
2022/05/15 11:28:02;;;;;;;3.30;1.30;;;18.00;75.10;;;;;;5061121;28;20042;-67
2022/05/15 11:30:31;;;;;;;1.55;0.63;;;18.00;75.90;;;;;;5078792;28;20482;-67
2022/05/15 11:33:08;;;;;;;3.10;0.75;;;18.10;77.40;;;;;;5072623;28;20420;-67
2022/05/15 11:35:40;;;;;;;2.00;0.80;;;18.20;75.00;;;;;;5080090;28;20090;-67
2022/05/15 11:38:10;;;;;;;4.90;0.82;;;18.20;76.10;;;;;;5062399;28;20047;-69
2022/05/15 11:40:43;;;;;;;1.85;0.70;;;18.30;76.80;;;;;;5060304;28;20048;-67
2022/05/15 11:43:33;;;;;;;4.20;0.73;;;18.30;76.10;;;;;;5060569;28;20039;-68
2022/05/15 11:45:59;;;;;;;9.57;1.10;;;18.40;71.50;;;;;;5059758;28;20040;-67
2022/05/15 11:48:29;;;;;;;6.20;0.93;;;18.40;74.90;;;;;;5059723;28;20028;-66
2022/05/15 11:51:03;;;;;;;1.90;0.75;;;18.40;72.80;;;;;;5059912;28;20036;-68
2022/05/15 11:53:53;;;;;;;1.40;0.55;;;18.40;71.90;;;;;;5059969;28;20036;-68
2022/05/15 11:56:37;;;;;;;1.00;0.60;;;18.40;70.90;;;;;;5040134;28;20040;-68
2022/05/15 11:59:11;;;;;;;1.70;0.75;;;18.50;73.00;;;;;;5037392;28;20053;-68
2022/05/15 12:01:38;;;;;;;4.47;0.90;;;18.50;73.30;;;;;;5062797;28;20401;-68
2022/05/15 12:04:14;;;;;;;2.95;1.13;;;18.60;73.40;;;;;;5054737;28;20044;-68
2022/05/15 12:07:09;;;;;;;3.72;1.00;;;18.60;72.80;;;;;;5053024;28;20041;-68
2022/05/15 12:09:41;;;;;;;5.53;0.80;;;18.60;71.30;;;;;;5073676;28;20047;-68
2022/05/15 12:12:27;;;;;;;3.17;0.93;;;18.60;73.20;;;;;;5071110;28;20097;-68
2022/05/15 12:15:16;;;;;;;5.72;0.75;;;18.70;69.80;;;;;;5080244;28;20053;-68
2022/05/15 12:17:51;;;;;;;2.50;0.95;;;18.80;68.20;;;;;;5053328;28;20052;-68
2022/05/15 12:20:36;;;;;;;7.90;1.33;;;18.80;69.90;;;;;;5053279;28;20092;-68
2022/05/15 12:23:31;;;;;;;1.95;0.68;;;18.90;66.30;;;;;;5081923;28;20048;-69
2022/05/15 12:26:20;;;;;;;5.35;0.95;;;19.00;70.60;;;;;;5087132;28;20052;-68
2022/05/15 12:29:00;;;;;;;5.60;0.90;;;19.00;66.80;;;;;;5071411;28;20044;-68
2022/05/15 12:31:42;;;;;;;5.45;0.63;;;19.10;69.60;;;;;;5090237;28;20051;-68
2022/05/15 12:34:18;;;;;;;2.67;0.80;;;19.10;66.20;;;;;;5052590;28;20040;-68
2022/05/15 12:36:52;;;;;;;2.30;0.73;;;19.10;67.70;;;;;;5052142;28;20051;-68
2022/05/15 12:39:27;;;;;;;1.83;0.90;;;19.10;68.50;;;;;;5070476;28;20040;-68
2022/05/15 12:41:53;;;;;;;5.00;1.10;;;19.10;68.50;;;;;;5053203;28;20045;-68
2022/05/15 12:44:31;;;;;;;5.30;1.02;;;19.10;68.70;;;;;;5053662;28;20042;-68
2022/05/15 12:47:00;;;;;;;1.88;0.65;;;19.10;64.50;;;;;;5070667;28;20044;-68
2022/05/15 12:49:39;;;;;;;4.65;1.27;;;19.10;66.80;;;;;;5070665;28;20040;-68
2022/05/15 12:52:16;;;;;;;6.93;0.95;;;19.10;61.40;;;;;;5051828;28;20383;-68
2022/05/15 12:54:46;;;;;;;4.07;1.05;;;19.20;63.70;;;;;;5052653;28;20044;-68
2022/05/15 12:57:15;;;;;;;3.38;1.08;;;19.20;66.10;;;;;;5052479;28;20054;-68
2022/05/15 12:59:47;;;;;;;5.97;0.88;;;19.30;66.20;;;;;;5070375;28;20040;-68
2022/05/15 13:02:22;;;;;;;3.58;0.98;;;19.30;66.20;;;;;;5037281;28;20489;-68
2022/05/15 13:04:52;;;;;;;4.07;0.80;;;19.30;63.50;;;;;;5069021;28;20036;-68
2022/05/15 13:07:25;;;;;;;2.63;0.82;;;19.40;63.20;;;;;;5070179;28;20283;-68
2022/05/15 13:10:26;;;;;;;2.35;0.63;;;19.40;61.80;;;;;;5073162;28;20138;-68
2022/05/15 13:12:57;;;;;;;4.00;0.70;;;19.40;59.80;;;;;;4965808;28;20043;-68
2022/05/15 13:15:28;;;;;;;1.67;0.50;;;19.50;62.90;;;;;;5046792;28;20205;-68
2022/05/15 13:17:56;;;;;;;3.22;0.70;;;19.50;62.50;;;;;;5067934;28;20115;-68
2022/05/15 13:20:25;;;;;;;2.28;0.80;;;19.50;63.20;;;;;;5052622;28;20051;-68
2022/05/15 13:22:52;;;;;;;2.75;1.08;;;19.50;63.30;;;;;;5051442;28;20083;-68
2022/05/15 13:25:26;;;;;;;2.15;0.70;;;19.50;63.80;;;;;;5052369;28;20044;-68
2022/05/15 13:27:53;;;;;;;2.50;0.70;;;19.60;63.70;;;;;;5072711;28;20044;-68
2022/05/15 13:30:23;;;;;;;1.42;0.70;;;19.60;63.40;;;;;;5060920;28;20040;-68
2022/05/15 13:32:51;;;;;;;2.22;0.73;;;19.60;62.40;;;;;;5054947;28;20409;-68